KLFT/LFT METAR and TAF weather

Enter ICAO airport designator
Station Type Date Time Source
KLFT METAR 2024/04/17 17:09 UTC NOAA

KLFT 171709Z 15007G16KT 10SM SCT020 SCT030 26/22 A3005 RMK AO2 T02560217


Station Type Date Time Source
KLFT Decoded METAR 2024/04/17 17:09 UTC NOAA

LAFAYETTE REGIONAL AIRPORT, LA, United States (KLFT) 30-12N 092-00W 11M
Apr 17, 2024 - 01:09 PM EDT / 2024.04.17 1709 UTC
Wind: from the SSE (150 degrees) at 8 MPH (7 KT) gusting to 18 MPH (16 KT):0
Visibility: 10 mile(s):0
Sky conditions: partly cloudy
Temperature: 78.1 F (25.6 C)
Dew Point: 71.1 F (21.7 C)
Relative Humidity: 79%
Pressure (altimeter): 30.05 in. Hg (1017 hPa)
ob: KLFT 171709Z 15007G16KT 10SM SCT020 SCT030 26/22 A3005 RMK AO2 T02560217
cycle: 17

Station Type Date Time Source
KLFT TAF 2024/04/17 18:24 UTC NOAA